Time;durP1;ratioP1;P1;durP2;ratioP2;P2;SDS_P1;SDS_P2;PMS_P1;PMS_P2;Temp;Humidity;BMP_temperature;BMP_pressure;BME280_temperature;BME280_humidity;BME280_pressure;Samples;Min_cycle;Max_cycle;Signal;HPM_P1;HPM_P2
2023/06/16 00:01:23;;;;;;;;;10.00;8.33;;;;;22.88;40.62;101543.91;5039344;28;45335;-70
2023/06/16 00:03:49;;;;;;;;;10.33;9.67;;;;;22.88;40.54;101542.06;5038782;28;45365;-71
2023/06/16 00:06:19;;;;;;;;;11.00;9.67;;;;;22.92;40.35;101545.44;5038187;28;45581;-72
2023/06/16 00:08:47;;;;;;;;;10.67;9.67;;;;;22.90;40.27;101541.97;5038268;28;45508;-71
2023/06/16 00:11:13;;;;;;;;;9.33;9.33;;;;;22.86;40.53;101538.63;5038914;28;45317;-71
2023/06/16 00:13:39;;;;;;;;;9.00;9.00;;;;;22.80;40.59;101528.28;5039157;28;45225;-71
2023/06/16 00:16:05;;;;;;;;;12.00;11.00;;;;;22.71;40.74;101507.34;5038584;28;46050;-71
2023/06/16 00:18:31;;;;;;;;;10.33;9.00;;;;;22.73;40.62;101514.38;5039158;28;45385;-71
2023/06/16 00:21:01;;;;;;;;;13.00;10.00;;;;;22.74;40.87;101525.97;5038457;28;45290;-71
2023/06/16 00:23:26;;;;;;;;;11.00;9.00;;;;;22.62;40.99;101505.25;5038962;28;45439;-71
2023/06/16 00:25:52;;;;;;;;;9.67;9.67;;;;;22.61;41.14;101517.78;5038628;28;47175;-71
2023/06/16 00:28:17;;;;;;;;;8.00;7.33;;;;;22.51;41.26;101509.47;5038406;28;45403;-71
2023/06/16 00:30:43;;;;;;;;;11.00;9.67;;;;;22.50;41.20;101513.09;5038965;28;45341;-71
2023/06/16 00:33:10;;;;;;;;;16.00;13.33;;;;;22.40;41.49;101510.09;5038990;28;45229;-71
2023/06/16 00:35:35;;;;;;;;;12.00;10.33;;;;;22.43;41.35;101520.63;5037936;28;46565;-71
2023/06/16 00:38:00;;;;;;;;;10.67;8.67;;;;;22.32;41.45;101503.44;5038443;28;45313;-71
2023/06/16 00:40:26;;;;;;;;;9.67;8.00;;;;;22.33;41.38;101515.94;5038475;28;45795;-71
2023/06/16 00:42:51;;;;;;;;;10.00;10.00;;;;;22.29;41.40;101517.88;5054221;28;45341;-71
2023/06/16 00:45:17;;;;;;;;;9.00;8.00;;;;;22.32;41.32;101517.75;5038561;28;46477;-71
2023/06/16 00:47:42;;;;;;;;;9.67;9.67;;;;;22.21;41.40;101507.63;5038067;28;45610;-71
2023/06/16 00:50:08;;;;;;;;;12.33;10.67;;;;;22.24;41.29;101503.91;5038458;28;45424;-71
2023/06/16 00:52:37;;;;;;;;;12.00;11.00;;;;;22.24;41.41;101501.22;5038322;28;45336;-71
2023/06/16 00:55:03;;;;;;;;;11.00;11.00;;;;;22.23;41.39;101502.16;5037985;28;45455;-72
2023/06/16 00:57:29;;;;;;;;;14.33;13.00;;;;;22.06;41.38;101484.38;5038208;28;45370;-71
2023/06/16 00:59:55;;;;;;;;;11.67;10.33;;;;;22.23;41.45;101511.09;5038566;28;45278;-71
2023/06/16 01:02:21;;;;;;;;;12.33;10.00;;;;;22.20;41.50;101513.09;5040263;28;45448;-71
2023/06/16 01:04:48;;;;;;;;;13.33;12.00;;;;;22.14;41.63;101492.84;5037275;28;46472;-71
2023/06/16 01:07:30;;;;;;;;;12.00;11.00;;;;;22.14;41.37;101500.03;5038238;28;45674;-71
2023/06/16 01:10:17;;;;;;;;;12.67;12.33;;;;;22.11;41.57;101503.78;5038112;28;45353;-71
2023/06/16 01:13:10;;;;;;;;;9.33;9.33;;;;;22.04;41.59;101491.66;5038305;28;45343;-71
2023/06/16 01:15:39;;;;;;;;;11.00;11.00;;;;;22.09;41.81;101497.66;5038107;28;46634;-71
2023/06/16 01:18:07;;;;;;;;;14.33;12.00;;;;;22.04;41.89;101492.53;5037594;28;45471;-71
2023/06/16 01:20:48;;;;;;;;;12.00;11.00;;;;;22.05;41.87;101501.47;5038063;28;45883;-71
2023/06/16 01:23:35;;;;;;;;;11.33;10.00;;;;;22.03;41.83;101506.03;5037933;28;45518;-71
2023/06/16 01:26:04;;;;;;;;;13.00;10.33;;;;;22.04;41.94;101505.09;5037531;28;46347;-71
2023/06/16 01:28:32;;;;;;;;;14.00;14.00;;;;;22.03;41.97;101500.66;5037865;28;45348;-71
2023/06/16 01:30:59;;;;;;;;;11.00;11.00;;;;;21.91;42.27;101489.72;5037774;28;45456;-71
2023/06/16 01:33:27;;;;;;;;;12.33;12.00;;;;;21.99;42.10;101507.19;5037512;28;45475;-71
2023/06/16 01:35:53;;;;;;;;;10.00;10.00;;;;;21.99;42.18;101507.19;5037647;28;46450;-71
2023/06/16 01:38:22;;;;;;;;;17.00;12.00;;;;;21.93;42.38;101508.41;5037527;28;46074;-71
2023/06/16 01:40:50;;;;;;;;;16.67;13.67;;;;;21.91;42.42;101508.50;5037644;28;45505;-71
2023/06/16 01:43:16;;;;;;;;;13.33;11.33;;;;;21.91;42.74;101505.81;5037732;28;45331;-71
2023/06/16 01:45:42;;;;;;;;;13.67;10.33;;;;;21.94;42.85;101515.47;5037453;28;45349;-71
2023/06/16 01:48:07;;;;;;;;;17.00;14.67;;;;;21.83;42.79;101499.19;5037781;28;45293;-71
2023/06/16 01:50:34;;;;;;;;;13.00;12.00;;;;;21.81;42.73;101499.25;5037380;28;45376;-71
2023/06/16 01:52:59;;;;;;;;;11.33;11.33;;;;;21.74;42.94;101492.53;5037663;28;45172;-71
2023/06/16 01:55:24;;;;;;;;;14.67;14.67;;;;;21.82;42.87;101502.81;5037241;28;47109;-71
2023/06/16 01:57:53;;;;;;;;;12.00;12.00;;;;;21.69;42.88;101489.25;5037158;28;45441;-71
2023/06/16 02:00:25;;;;;;;;;16.00;15.00;;;;;21.73;43.09;101499.69;5037628;28;45475;-71
2023/06/16 02:02:54;;;;;;;;;12.00;11.00;;;;;21.67;43.23;101493.84;5037420;28;45522;-71
2023/06/16 02:05:25;;;;;;;;;16.33;14.00;;;;;21.70;43.38;101515.09;5036814;28;46344;-71
2023/06/16 02:07:53;;;;;;;;;10.00;8.67;;;;;21.61;43.54;101502.22;5037322;28;45486;-71
2023/06/16 02:10:22;;;;;;;;;18.00;15.33;;;;;21.60;43.31;101506.72;5037231;28;45368;-71
2023/06/16 02:12:49;;;;;;;;;19.00;14.67;;;;;21.53;43.21;101498.16;5037313;28;45388;-71
2023/06/16 02:15:17;;;;;;;;;13.33;13.33;;;;;21.50;43.49;101489.41;5037258;28;47030;-71
2023/06/16 02:17:44;;;;;;;;;13.67;12.33;;;;;21.61;43.45;101512.94;5036998;28;45433;-71
2023/06/16 02:20:11;;;;;;;;;14.00;13.00;;;;;21.47;43.44;101497.63;5036757;28;45398;-71
2023/06/16 02:22:36;;;;;;;;;11.67;11.67;;;;;21.46;43.23;101499.41;5037464;28;45538;-71
2023/06/16 02:25:01;;;;;;;;;17.67;13.33;;;;;21.47;43.43;101501.16;5037898;28;45459;-71
2023/06/16 02:27:27;;;;;;;;;11.33;11.33;;;;;21.48;43.20;101504.69;5043724;28;45171;-71
2023/06/16 02:29:52;;;;;;;;;15.00;14.67;;;;;21.39;43.50;101495.34;5043616;28;45317;-71
2023/06/16 02:32:18;;;;;;;;;14.33;14.33;;;;;21.36;43.83;101484.81;5043913;28;45345;-71
2023/06/16 02:34:43;;;;;;;;;13.67;13.33;;;;;21.41;43.62;101496.16;5043772;28;46135;-71
2023/06/16 02:37:11;;;;;;;;;16.00;15.67;;;;;21.10;43.68;101452.34;5043654;28;45200;-71
2023/06/16 02:39:39;;;;;;;;;17.33;15.67;;;;;21.28;43.45;101492.44;5043799;28;45310;-72
2023/06/16 02:42:06;;;;;;;;;15.33;13.33;;;;;21.30;43.57;101501.25;5043802;28;45392;-71
2023/06/16 02:44:31;;;;;;;;;19.33;15.67;;;;;21.26;43.75;101505.03;5042995;28;45998;-71
2023/06/16 02:46:57;;;;;;;;;15.67;15.67;;;;;21.28;43.97;101501.34;5043216;28;45341;-71
2023/06/16 02:49:23;;;;;;;;;16.67;16.67;;;;;21.27;43.75;101514.81;5043658;28;45222;-71
2023/06/16 02:51:49;;;;;;;;;14.67;14.67;;;;;21.18;44.41;101508.16;5043729;28;45454;-71
2023/06/16 02:54:15;;;;;;;;;18.00;16.33;;;;;21.11;44.07;101501.41;5043198;28;46715;-71
2023/06/16 02:56:40;;;;;;;;;12.67;10.67;;;;;21.07;44.40;101505.19;5043177;28;45405;-71
2023/06/16 02:59:06;;;;;;;;;16.67;15.67;;;;;21.09;44.70;101509.53;5043373;28;45412;-71
2023/06/16 03:01:32;;;;;;;;;19.00;17.67;;;;;21.04;44.80;101500.88;5043580;28;45339;-71
2023/06/16 03:03:58;;;;;;;;;18.33;16.33;;;;;21.01;44.66;101503.72;5043158;28;45511;-71
2023/06/16 03:06:23;;;;;;;;;18.67;16.33;;;;;21.03;44.82;101509.88;5043268;28;46083;-71
2023/06/16 03:08:48;;;;;;;;;21.00;17.33;;;;;21.02;44.71;101508.13;5043441;28;45310;-71
2023/06/16 03:11:15;;;;;;;;;19.33;17.00;;;;;21.03;44.77;101520.59;5043532;28;45541;-71
2023/06/16 03:13:41;;;;;;;;;21.00;21.00;;;;;20.98;44.90;101515.44;5042933;28;46687;-71
2023/06/16 03:16:07;;;;;;;;;21.67;20.00;;;;;20.96;44.94;101519.19;5042424;28;45451;-71
2023/06/16 03:18:33;;;;;;;;;22.33;19.33;;;;;20.88;45.22;101511.53;5043402;28;45321;-71
2023/06/16 03:20:58;;;;;;;;;23.33;20.00;;;;;20.91;45.06;101521.22;5043366;28;45443;-71
2023/06/16 03:23:24;;;;;;;;;21.33;20.67;;;;;20.82;45.21;101520.78;5043162;28;46341;-70
2023/06/16 03:25:49;;;;;;;;;19.33;19.33;;;;;20.80;45.51;101520.00;5042760;28;45472;-70
2023/06/16 03:28:14;;;;;;;;;19.67;17.00;;;;;20.77;45.72;101512.13;5042897;28;45401;-70
2023/06/16 03:30:40;;;;;;;;;29.00;25.00;;;;;20.66;45.68;101503.78;5043004;28;45217;-70
2023/06/16 03:33:06;;;;;;;;;21.67;18.67;;;;;20.68;45.57;101512.59;5042669;28;46589;-70
2023/06/16 03:35:32;;;;;;;;;18.33;18.00;;;;;20.67;45.74;101505.56;5043036;28;45328;-70
2023/06/16 03:37:57;;;;;;;;;19.67;15.00;;;;;20.68;45.95;101518.84;5039115;28;46146;-70
2023/06/16 03:40:22;;;;;;;;;18.00;16.67;;;;;20.61;46.14;101500.50;5039671;28;45296;-70
2023/06/16 03:42:48;;;;;;;;;20.33;16.67;;;;;20.66;46.00;101520.72;5039174;28;47310;-71
2023/06/16 03:45:13;;;;;;;;;19.00;17.33;;;;;20.65;46.34;101518.09;5039371;28;45383;-70
2023/06/16 03:47:39;;;;;;;;;20.33;17.67;;;;;20.59;46.62;101521.09;5039605;28;45726;-70
2023/06/16 03:50:05;;;;;;;;;17.33;17.33;;;;;20.32;46.64;101487.69;5039612;28;45411;-70
2023/06/16 03:52:30;;;;;;;;;22.33;22.33;;;;;20.56;46.59;101523.94;5038912;28;45385;-70
2023/06/16 03:54:57;;;;;;;;;20.33;19.00;;;;;20.33;46.55;101492.09;5039500;28;45506;-70
2023/06/16 03:57:22;;;;;;;;;18.67;17.00;;;;;20.51;46.69;101525.03;5039513;28;45302;-70
2023/06/16 03:59:47;;;;;;;;;23.33;18.67;;;;;20.50;46.85;101520.63;5039289;28;45343;-70
2023/06/16 04:02:13;;;;;;;;;21.67;18.67;;;;;20.37;47.25;101503.50;5039082;28;45324;-70
2023/06/16 04:04:38;;;;;;;;;24.33;22.33;;;;;20.33;47.39;101504.59;5039339;28;45324;-71
2023/06/16 04:07:05;;;;;;;;;17.67;16.67;;;;;20.42;47.41;101535.34;5039293;28;45859;-70
2023/06/16 04:09:30;;;;;;;;;21.00;19.50;;;;;20.34;47.83;101512.53;5039122;28;45455;-70
2023/06/16 04:11:56;;;;;;;;;20.67;19.00;;;;;20.33;47.34;101512.63;5038457;28;47048;-70
2023/06/16 04:14:22;;;;;;;;;27.33;22.00;;;;;20.34;47.36;101525.06;5039015;28;45391;-70
2023/06/16 04:16:47;;;;;;;;;22.67;22.67;;;;;20.25;47.83;101513.03;5039086;28;45480;-70
2023/06/16 04:19:13;;;;;;;;;20.33;20.00;;;;;20.34;48.05;101523.22;5039525;28;45488;-70
2023/06/16 04:21:41;;;;;;;;;27.33;24.00;;;;;20.33;47.69;101531.34;5038524;28;46787;-70
2023/06/16 04:24:08;;;;;;;;;22.00;19.67;;;;;20.31;48.32;101526.06;5038931;28;45219;-70
2023/06/16 04:26:34;;;;;;;;;28.33;24.00;;;;;20.25;48.32;101520.19;5038462;28;45494;-70
2023/06/16 04:29:03;;;;;;;;;27.33;25.67;;;;;20.35;47.93;101534.81;5037518;28;45439;-70
2023/06/16 04:31:30;;;;;;;;;28.00;28.00;;;;;20.31;48.28;101528.75;5038754;28;46774;-70
2023/06/16 04:33:57;;;;;;;;;25.67;23.33;;;;;20.33;48.78;101536.69;5038571;28;45248;-70
2023/06/16 04:36:29;;;;;;;;;27.00;27.00;;;;;20.25;49.10;101522.84;5038853;28;45594;-70
2023/06/16 04:38:55;;;;;;;;;32.67;27.67;;;;;20.29;48.97;101521.78;5038460;28;45529;-70
2023/06/16 04:41:20;;;;;;;;;33.00;29.67;;;;;20.32;49.35;101532.31;5038296;28;46039;-70
2023/06/16 04:43:46;;;;;;;;;31.33;28.33;;;;;20.28;49.23;101520.88;5038759;28;45361;-70
2023/06/16 04:46:11;;;;;;;;;35.67;32.00;;;;;20.36;49.33;101533.88;5038749;28;45172;-70
2023/06/16 04:48:37;;;;;;;;;37.67;28.67;;;;;20.40;49.51;101526.56;5038358;28;45705;-70
2023/06/16 04:51:02;;;;;;;;;36.67;29.00;;;;;20.38;49.45;101518.59;5038138;28;46226;-70
2023/06/16 04:53:28;;;;;;;;;33.33;31.00;;;;;20.40;49.54;101526.56;5038323;28;45305;-71
2023/06/16 04:55:54;;;;;;;;;34.33;31.33;;;;;20.34;49.66;101506.31;5038591;28;45269;-71
2023/06/16 04:58:20;;;;;;;;;39.33;31.00;;;;;20.44;50.45;101523.63;5038577;28;45222;-71
2023/06/16 05:00:46;;;;;;;;;38.00;30.67;;;;;20.53;49.74;101522.28;5037738;28;46413;-70
2023/06/16 05:03:11;;;;;;;;;38.33;33.67;;;;;20.58;50.29;101530.06;5038206;28;45461;-69
2023/06/16 05:05:37;;;;;;;;;40.00;35.67;;;;;20.62;50.04;101523.59;5038486;28;45324;-71
2023/06/16 05:08:02;;;;;;;;;36.00;31.33;;;;;20.68;50.39;101526.00;5038289;28;45285;-71
2023/06/16 05:10:27;;;;;;;;;35.33;30.33;;;;;20.68;50.36;101512.59;5037569;28;45385;-71
2023/06/16 05:12:53;;;;;;;;;45.67;35.67;;;;;20.78;50.47;101518.34;5037865;28;45415;-71
2023/06/16 05:15:18;;;;;;;;;44.00;35.67;;;;;20.60;50.36;101491.59;5037817;28;45650;-71
2023/06/16 05:17:44;;;;;;;;;39.67;35.67;;;;;20.81;50.94;101518.19;5038191;28;45317;-71
2023/06/16 05:20:09;;;;;;;;;45.00;37.33;;;;;20.78;51.31;101510.31;5037777;28;45472;-71
2023/06/16 05:22:35;;;;;;;;;44.00;37.67;;;;;20.84;51.05;101518.00;5037585;28;45350;-71
2023/06/16 05:25:00;;;;;;;;;46.67;36.67;;;;;20.89;51.11;101521.31;5037867;28;45867;-71
2023/06/16 05:27:26;;;;;;;;;41.00;35.67;;;;;20.97;51.23;101524.44;5035018;28;45389;-71
2023/06/16 05:29:53;;;;;;;;;49.67;38.00;;;;;20.94;50.99;101516.59;5037192;28;46795;-74
2023/06/16 05:32:19;;;;;;;;;52.00;40.67;;;;;20.98;51.53;101522.63;5036989;28;45294;-71
2023/06/16 05:34:46;;;;;;;;;50.00;40.00;;;;;20.98;51.57;101519.94;5036999;28;45465;-71
2023/06/16 05:37:15;;;;;;;;;49.33;39.33;;;;;21.11;51.78;101537.06;5037245;28;45625;-71
2023/06/16 05:39:42;;;;;;;;;44.00;36.50;;;;;21.14;51.67;101530.69;5017712;28;45338;-71
2023/06/16 05:42:07;;;;;;;;;49.00;40.67;;;;;21.15;51.70;101533.28;5032441;28;45472;-71
2023/06/16 05:44:32;;;;;;;;;45.25;39.25;;;;;21.05;52.27;101519.53;5037570;28;45277;-71
2023/06/16 05:46:58;;;;;;;;;47.25;40.50;;;;;21.12;52.68;101540.63;5037448;28;45521;-71
2023/06/16 05:49:23;;;;;;;;;52.00;39.25;;;;;21.06;52.45;101525.75;5036757;28;47365;-71
2023/06/16 05:51:51;;;;;;;;;48.00;37.00;;;;;21.21;52.20;101532.09;5036708;28;45284;-71
2023/06/16 05:54:17;;;;;;;;;40.33;35.00;;;;;21.27;52.58;101534.41;5036954;28;45442;-70
2023/06/16 05:56:42;;;;;;;;;49.25;41.25;;;;;21.33;52.09;101534.09;5036804;28;45460;-71
2023/06/16 05:59:07;;;;;;;;;53.75;40.50;;;;;21.46;52.01;101544.13;5037469;28;46630;-71
2023/06/16 06:01:32;;;;;;;;;46.00;38.33;;;;;21.56;51.59;101540.84;5036439;28;45531;-71
2023/06/16 06:03:58;;;;;;;;;46.75;39.25;;;;;21.73;51.34;101533.69;5037675;28;45347;-71
2023/06/16 06:06:23;;;;;;;;;50.00;40.00;;;;;21.79;51.16;101545.88;5036762;28;45481;-71
2023/06/16 06:08:48;;;;;;;;;49.75;38.75;;;;;21.92;50.80;101549.56;5036603;28;46616;-70
2023/06/16 06:11:14;;;;;;;;;47.75;40.25;;;;;21.97;50.90;101549.31;5037256;28;45386;-71
2023/06/16 06:13:39;;;;;;;;;44.67;39.00;;;;;21.96;50.80;101534.16;5037193;28;45400;-70
2023/06/16 06:16:04;;;;;;;;;49.75;39.75;;;;;21.99;51.30;101547.41;5037649;28;45321;-70
2023/06/16 06:18:30;;;;;;;;;45.75;39.50;;;;;22.01;50.99;101540.13;5037130;28;45460;-70
2023/06/16 06:20:55;;;;;;;;;52.25;42.75;;;;;22.08;51.25;101549.56;5037135;28;45481;-70
2023/06/16 06:23:21;;;;;;;;;49.50;40.00;;;;;22.26;50.70;101551.16;5037212;28;45266;-70
2023/06/16 06:25:47;;;;;;;;;45.33;36.67;;;;;22.25;50.48;101536.00;5037218;28;45425;-70
2023/06/16 06:28:12;;;;;;;;;42.25;36.50;;;;;22.31;50.41;101550.03;5036512;28;46694;-70
2023/06/16 06:30:38;;;;;;;;;49.50;40.75;;;;;22.36;50.26;101558.69;5036839;28;45393;-71
2023/06/16 06:33:03;;;;;;;;;46.25;38.25;;;;;22.27;50.29;101542.13;5037227;28;45365;-70
2023/06/16 06:35:28;;;;;;;;;46.00;36.33;;;;;22.43;50.17;101562.72;5037225;28;45413;-70
2023/06/16 06:37:54;;;;;;;;;53.00;43.25;;;;;22.38;50.32;101543.34;5036884;28;46202;-70
2023/06/16 06:40:19;;;;;;;;;48.67;39.00;;;;;22.41;49.85;101545.88;5037021;28;45219;-71
2023/06/16 06:42:45;;;;;;;;;46.33;37.00;;;;;22.55;49.77;101566.47;5036925;28;45329;-71
2023/06/16 06:45:11;;;;;;;;;51.33;39.67;;;;;22.55;49.75;101564.69;5037338;28;45144;-70
2023/06/16 06:47:37;;;;;;;;;48.67;38.67;;;;;22.57;50.02;101564.59;5036664;28;47252;-70
2023/06/16 06:50:03;;;;;;;;;48.00;39.67;;;;;22.62;50.02;101562.47;5036577;28;45305;-70
2023/06/16 06:52:29;;;;;;;;;47.00;37.25;;;;;22.64;50.17;101562.38;5036933;28;45383;-70
2023/06/16 06:54:56;;;;;;;;;49.25;40.50;;;;;22.75;50.28;101570.66;5037006;28;45504;-70
2023/06/16 06:57:22;;;;;;;;;43.33;35.00;;;;;22.80;49.91;101565.88;5036652;28;45451;-70
2023/06/16 06:59:47;;;;;;;;;39.67;35.00;;;;;22.93;49.60;101572.22;5036615;28;45357;-69
2023/06/16 07:02:12;;;;;;;;;49.50;40.25;;;;;23.08;49.90;101580.28;5036615;28;45315;-70
2023/06/16 07:04:39;;;;;;;;;42.25;36.50;;;;;23.17;48.89;101579.72;5036852;28;45272;-69
2023/06/16 07:07:05;;;;;;;;;46.67;36.33;;;;;23.19;48.73;101574.25;5036539;28;46540;-69
2023/06/16 07:09:31;;;;;;;;;45.00;36.00;;;;;23.30;49.08;101579.81;5036631;28;45668;-70
2023/06/16 07:11:56;;;;;;;;;42.67;35.67;;;;;23.30;48.67;101542.19;5037850;28;46081;-70
2023/06/16 07:14:22;;;;;;;;;41.67;36.00;;;;;24.24;47.36;101573.75;5040217;28;45405;-70
2023/06/16 07:16:47;;;;;;;;;40.67;35.67;;;;;24.93;45.82;101572.66;5040169;28;45332;-70
2023/06/16 07:19:12;;;;;;;;;41.00;35.33;;;;;25.08;44.63;101541.06;5039896;28;45535;-72
2023/06/16 07:21:40;;;;;;;;;37.67;34.00;;;;;25.12;44.62;101562.28;5040140;28;45296;-70
2023/06/16 07:24:06;;;;;;;;;44.33;35.67;;;;;24.99;44.56;101564.13;5040144;28;45301;-70
2023/06/16 07:26:32;;;;;;;;;42.33;35.00;;;;;24.83;45.39;101570.63;5039420;28;45499;-70
2023/06/16 07:28:57;;;;;;;;;36.67;30.67;;;;;24.70;45.08;101558.97;5039330;28;45363;-70
2023/06/16 07:31:24;;;;;;;;;47.00;36.00;;;;;24.84;44.96;101574.19;5039738;28;45557;-70
2023/06/16 07:33:50;;;;;;;;;34.33;31.33;;;;;24.74;44.87;101560.47;5039935;28;45348;-70
2023/06/16 07:36:15;;;;;;;;;34.33;30.67;;;;;25.27;43.73;101576.53;5039478;28;46723;-70
2023/06/16 07:38:41;;;;;;;;;39.67;32.67;;;;;25.31;43.05;101582.56;5039592;28;45290;-69
2023/06/16 07:41:07;;;;;;;;;35.67;31.67;;;;;25.21;43.10;101587.72;5039994;28;45345;-70
2023/06/16 07:43:33;;;;;;;;;32.00;29.67;;;;;25.03;43.80;101584.50;5039741;28;45508;-70
2023/06/16 07:45:58;;;;;;;;;33.67;29.67;;;;;24.93;43.45;101570.81;5039261;28;46632;-70
2023/06/16 07:48:23;;;;;;;;;37.00;31.67;;;;;24.82;44.19;101570.75;5039617;28;45425;-70
2023/06/16 07:50:49;;;;;;;;;32.00;27.67;;;;;24.79;44.31;101568.22;5039458;28;45310;-70
2023/06/16 07:53:14;;;;;;;;;28.00;26.67;;;;;24.73;43.83;101563.28;5039607;28;45499;-70
2023/06/16 07:55:40;;;;;;;;;26.33;24.33;;;;;24.77;43.58;101570.19;5039202;28;46469;-68
2023/06/16 07:58:06;;;;;;;;;25.33;23.33;;;;;24.72;42.78;101567.81;5039379;28;45472;-69
2023/06/16 08:00:31;;;;;;;;;17.00;17.00;;;;;24.88;42.52;101577.50;5039521;28;45366;-69
2023/06/16 08:02:56;;;;;;;;;19.00;15.00;;;;;24.96;41.59;101576.00;5039331;28;45417;-71
2023/06/16 08:05:22;;;;;;;;;21.67;17.00;;;;;24.84;41.39;101564.25;5039430;28;45271;-70
2023/06/16 08:07:47;;;;;;;;;25.00;23.33;;;;;24.91;42.27;101575.47;5039263;28;45272;-70
2023/06/16 08:10:13;;;;;;;;;27.67;27.67;;;;;24.90;42.26;101571.03;5039551;28;45229;-70
2023/06/16 08:12:38;;;;;;;;;22.67;19.33;;;;;24.94;42.76;101574.41;5039094;28;45324;-71
2023/06/16 08:15:05;;;;;;;;;24.67;22.67;;;;;25.09;43.11;101577.84;5038828;28;45987;-71
2023/06/16 08:17:30;;;;;;;;;29.67;28.67;;;;;25.22;42.54;101577.81;5039353;28;45395;-70
2023/06/16 08:19:55;;;;;;;;;20.67;20.67;;;;;25.20;41.69;101565.31;5039144;28;45333;-70
2023/06/16 08:22:21;;;;;;;;;27.00;26.00;;;;;25.08;41.94;101543.75;5039347;28;45458;-71
2023/06/16 08:24:47;;;;;;;;;28.33;27.33;;;;;25.26;41.83;101566.69;5038214;28;46318;-71
2023/06/16 08:27:12;;;;;;;;;29.67;26.33;;;;;25.30;41.85;101572.72;5038681;28;45527;-71
2023/06/16 08:29:39;;;;;;;;;26.67;24.00;;;;;25.44;41.95;101563.69;5038910;28;45465;-71
2023/06/16 08:32:06;;;;;;;;;28.00;26.00;;;;;25.81;42.21;101564.53;5039024;28;45479;-71
2023/06/16 08:34:31;;;;;;;;;28.33;28.33;;;;;25.90;41.55;101565.69;5038688;28;46326;-71
2023/06/16 08:36:58;;;;;;;;;31.00;30.33;;;;;25.86;41.57;101559.63;5038747;28;45291;-72
2023/06/16 08:39:24;;;;;;;;;39.50;34.75;;;;;25.75;41.25;101538.00;5038674;28;45344;-72
2023/06/16 08:41:50;;;;;;;;;31.67;29.00;;;;;26.08;41.86;101570.69;5038829;28;45444;-71
2023/06/16 08:44:19;;;;;;;;;30.67;28.67;;;;;26.11;41.10;101565.06;5038441;28;46120;-71
2023/06/16 08:46:45;;;;;;;;;33.00;30.67;;;;;26.27;40.79;101546.69;5038339;28;45433;-71
2023/06/16 08:49:14;;;;;;;;;26.33;24.33;;;;;26.39;41.03;101553.88;5038736;28;45420;-71
2023/06/16 08:51:47;;;;;;;;;26.33;24.33;;;;;26.36;40.45;101555.97;5038623;28;45446;-70
2023/06/16 08:54:13;;;;;;;;;24.33;21.67;;;;;26.38;40.50;101562.09;5036884;28;46315;-71
2023/06/16 08:56:42;;;;;;;;;26.33;26.00;;;;;26.30;40.50;101551.91;5038395;28;45361;-72
2023/06/16 08:59:08;;;;;;;;;33.00;28.33;;;;;26.36;40.70;101562.22;5038332;28;45484;-72
2023/06/16 09:01:39;;;;;;;;;22.67;20.33;;;;;26.37;40.28;101561.25;5038586;28;45251;-72
2023/06/16 09:04:08;;;;;;;;;26.33;26.33;;;;;26.38;39.71;101567.50;5038298;28;46253;-72
2023/06/16 09:06:37;;;;;;;;;26.67;24.67;;;;;26.35;39.83;101556.94;5038148;28;45452;-71
2023/06/16 09:09:03;;;;;;;;;22.00;20.33;;;;;26.38;39.59;101557.53;5038401;28;45233;-71
2023/06/16 09:11:30;;;;;;;;;16.67;15.33;;;;;26.43;38.83;101551.78;5038395;28;45592;-71
2023/06/16 09:13:56;;;;;;;;;24.00;18.67;;;;;26.58;38.25;101557.84;5037719;28;47032;-71
2023/06/16 09:16:22;;;;;;;;;20.00;18.00;;;;;26.92;37.82;101550.66;5038189;28;45452;-71
2023/06/16 09:18:49;;;;;;;;;19.00;19.00;;;;;26.83;37.93;101524.38;5038074;28;45420;-71
2023/06/16 09:21:23;;;;;;;;;17.33;17.33;;;;;26.95;37.88;101546.03;5038203;28;45329;-71
2023/06/16 09:23:57;;;;;;;;;19.33;17.33;;;;;26.99;37.91;101552.91;5037943;28;46304;-71
2023/06/16 09:26:24;;;;;;;;;19.67;17.33;;;;;27.10;37.23;101561.88;5037702;28;45396;-71
2023/06/16 09:28:51;;;;;;;;;20.67;20.00;;;;;27.14;37.34;101550.81;5037730;28;45281;-71
2023/06/16 09:31:17;;;;;;;;;23.00;21.00;;;;;27.23;37.25;101547.34;5038126;28;45564;-71
2023/06/16 09:33:43;;;;;;;;;15.00;15.00;;;;;27.35;35.08;101548.25;5037746;28;45641;-72
2023/06/16 09:36:11;;;;;;;;;16.00;15.33;;;;;27.57;35.39;101558.16;5036671;28;45286;-71
2023/06/16 09:38:37;;;;;;;;;15.33;14.33;;;;;28.06;35.00;101564.06;5037829;28;45346;-71
2023/06/16 09:41:15;;;;;;;;;13.00;13.00;;;;;29.09;34.27;101547.06;5038057;28;45340;-71
2023/06/16 09:43:42;;;;;;;;;15.67;13.67;;;;;31.36;30.98;101557.75;5037515;28;45270;-72
2023/06/16 09:46:14;;;;;;;;;10.67;10.00;;;;;33.73;30.22;101553.34;5037760;28;45378;-71
2023/06/16 09:48:49;;;;;;;;;11.67;11.00;;;;;35.58;26.99;101548.06;5037735;28;45309;-71
2023/06/16 09:51:17;;;;;;;;;13.67;12.33;;;;;37.41;24.77;101547.88;5037835;28;45520;-71
2023/06/16 09:53:43;;;;;;;;;13.00;12.33;;;;;39.03;23.44;101539.09;5037399;28;45303;-71
2023/06/16 09:56:10;;;;;;;;;14.33;12.00;;;;;40.48;22.17;101556.19;5037432;28;45301;-72
2023/06/16 09:58:35;;;;;;;;;11.00;11.00;;;;;41.68;19.68;101546.56;5037573;28;45435;-71
2023/06/16 10:01:01;;;;;;;;;13.67;13.33;;;;;42.80;19.68;101553.31;5037802;28;45287;-71
2023/06/16 10:03:32;;;;;;;;;32.00;30.50;;;;;43.91;18.62;101552.28;5037194;28;46350;-71
2023/06/16 10:06:02;;;;;;;;;16.50;14.50;;;;;44.85;17.84;101559.78;5037333;28;45428;-71
2023/06/16 10:08:28;;;;;;;;;16.25;13.25;;;;;45.42;16.92;101535.88;5037453;28;45330;-71
2023/06/16 10:10:53;;;;;;;;;13.00;13.00;;;;;46.03;17.01;101547.31;5037498;28;45444;-72
2023/06/16 10:13:21;;;;;;;;;10.75;10.50;;;;;46.62;16.24;101540.41;5037147;28;46346;-71
2023/06/16 10:15:49;;;;;;;;;12.00;10.00;;;;;47.14;15.95;101534.38;5037170;28;45266;-71
2023/06/16 10:18:17;;;;;;;;;10.75;10.75;;;;;47.76;15.67;101544.22;5037132;28;45275;-71
2023/06/16 10:20:42;;;;;;;;;9.25;9.25;;;;;48.13;14.88;101542.56;5037582;28;45393;-72
2023/06/16 10:23:08;;;;;;;;;28.25;24.50;;;;;48.37;15.12;101542.19;5037069;28;46213;-71
2023/06/16 10:25:34;;;;;;;;;15.50;12.75;;;;;48.67;14.53;101537.88;5037259;28;45318;-70
2023/06/16 10:28:05;;;;;;;;;14.00;13.00;;;;;48.81;14.92;101542.66;5035362;28;45418;-70
2023/06/16 10:30:31;;;;;;;;;13.25;12.25;;;;;48.89;13.21;101527.38;5037366;28;45535;-70
2023/06/16 10:32:58;;;;;;;;;9.50;9.50;;;;;49.04;13.92;101539.72;5036757;28;46258;-70
2023/06/16 10:35:24;;;;;;;;;10.75;10.75;;;;;49.02;13.95;101528.81;5037034;28;45274;-70
2023/06/16 10:37:51;;;;;;;;;10.25;10.25;;;;;48.94;13.91;101537.72;5037025;28;45317;-70
2023/06/16 10:40:19;;;;;;;;;10.00;10.00;;;;;48.92;13.46;101531.56;5037508;28;45400;-70
2023/06/16 10:42:45;;;;;;;;;14.50;13.00;;;;;48.95;14.52;101539.41;5036857;28;47051;-70
2023/06/16 10:45:28;;;;;;;;;11.75;10.75;;;;;48.76;14.32;101537.06;5037081;28;45388;-70
2023/06/16 10:48:07;;;;;;;;;13.75;13.75;;;;;48.81;13.92;101525.91;5040019;28;45329;-69
2023/06/16 10:50:38;;;;;;;;;13.25;13.25;;;;;48.53;13.60;101526.38;5040777;28;45329;-69
2023/06/16 10:53:10;;;;;;;;;11.75;11.75;;;;;48.16;13.11;101513.28;5040104;28;46890;-70
2023/06/16 10:55:38;;;;;;;;;12.00;10.50;;;;;47.71;13.97;101524.63;5040279;28;45326;-72
2023/06/16 10:58:15;;;;;;;;;11.75;11.00;;;;;47.23;14.21;101520.78;5040438;28;45187;-70
2023/06/16 11:00:42;;;;;;;;;13.50;12.00;;;;;46.92;14.21;101518.47;5040565;28;45459;-70
2023/06/16 11:03:07;;;;;;;;;12.00;9.75;;;;;46.24;13.86;101498.34;5040065;28;46918;-70
2023/06/16 11:05:40;;;;;;;;;10.25;10.25;;;;;45.44;14.69;101512.34;5040303;28;45281;-70
2023/06/16 11:08:12;;;;;;;;;10.75;9.75;;;;;44.55;14.71;101521.06;5040295;28;45250;-70